Celine — HBEF — position and weather

sailwx.info

Track history (hours):
 
Tides and Currents Weather Stations Pressure Air Temp Water Temp Dewpoint Dewpoint Depression Visibility Wind Speed Wind Dir Waves Ship Positions

Celine

Last reported at 2015-May-13 09:33 UTC. Time now 2015-May-22 16:05 UTC.
Position N 31°30' E 032°15'.
Warning: this ship's position is 9 days out of date.

Length 129 m; draft 6.5 m.

Type: Cargo ship. MMSI: 269057000.

Date/timePositionNaut miles runAvg speedWind from/ knotsBaromVisibWave heightAir tempDewpointWater temp
2015-May-13 09:33N 31°30' E 032°15'  
2015-May-10 14:11N 36°10' E 015°16'913.5
2015-May-10 13:33N 36°13' E 015°06'1413.8
2015-May-10 12:33N 36°17' E 014°50'1414.0
2015-May-10 11:33N 36°22' E 014°34'1413.8
2015-May-10 10:34N 36°26' E 014°17'1413.8
2015-May-10 09:33N 36°30' E 014°01'1413.8
2015-May-10 08:34N 36°34' E 013°44'1413.8
2015-May-10 07:33N 36°39' E 013°28'1413.8
2015-May-10 06:33N 36°43' E 013°12'41113.7
2015-May-09 00:32N 37°12' E 004°38'1414.1
2015-May-08 23:33N 37°10' E 004°21'1414.3
2015-May-08 22:33N 37°08' E 004°04'1414.3
2015-May-08 21:33N 37°05' E 003°46'1413.8
2015-May-08 20:33N 37°02' E 003°29'1413.6
2015-May-08 19:33N 37°01' E 003°12'1414.0
2015-May-08 18:33N 36°58' E 002°55'1413.9
2015-May-08 17:33N 36°55' E 002°38'1413.8
2015-May-08 16:33N 36°53' E 002°21'1414.4
2015-May-08 15:33N 36°50' E 002°03'1414.3
2015-May-08 14:33N 36°48' E 001°46'1514.7
2015-May-08 13:34N 36°45' E 001°28'1515.1
2015-May-08 12:33N 36°43' E 001°09'1815.0
2015-May-08 11:21N 36°40' E 000°47'1214.6
2015-May-08 10:32N 36°38' E 000°32'1414.3
2015-May-08 09:33N 36°35' E 000°15'3912.1
2015-May-08 06:20N 36°28' W 000°32'1113.4
2015-May-08 05:33N 36°26' W 000°45'1513.5
2015-May-08 04:28N 36°24' W 001°03'1413.8
2015-May-08 03:29N 36°21' W 001°20'1213.4
2015-May-08 02:33N 36°19' W 001°35'2713.5
2015-May-08 00:31N 36°14' W 002°09'1313.5
2015-May-07 23:32N 36°11' W 002°25'1413.4
2015-May-07 22:31N 36°09' W 002°42'21313.3
2015-May-07 06:33N 36°03' W 007°05'1413.2
2015-May-07 05:31N 36°06' W 007°21'1313.3
2015-May-07 04:33N 36°09' W 007°37'1313.4
2015-May-07 03:33N 36°12' W 007°53'1313.2
2015-May-07 02:33N 36°16' W 008°09'1313.3
2015-May-07 01:33N 36°19' W 008°25'1313.3
2015-May-07 00:33N 36°22' W 008°41'1413.1
2015-May-06 23:31N 36°25' W 008°57'1313.2
2015-May-06 22:29N 36°28' W 009°14'1312.8
2015-May-06 21:30N 36°35' W 009°27'1313.3
2015-May-06 20:33N 36°44' W 009°38'1312.8
2015-May-06 19:31N 36°57' W 009°42'1612.9
2015-May-06 18:15N 37°13' W 009°46'1012.8
2015-May-06 17:30N 37°23' W 009°49'1312.8
2015-May-06 16:29N 37°35' W 009°53'1313.5
2015-May-06 15:33N 37°48' W 009°56'1313.5
2015-May-06 14:33N 38°01' W 010°01'1313.1
2015-May-06 13:33N 38°13' W 010°05'1313.1
2015-May-06 12:33N 38°26' W 010°09'1313.4
2015-May-06 11:33N 38°39' W 010°12'1414.0
2015-May-06 10:33N 38°53' W 010°12'1413.9
2015-May-06 09:33N 39°07' W 010°12'62111.9
2015-May-04 05:33N 48°57' W 005°42'20911.9
2015-May-03 12:04N 50°23' W 000°48'  
Track history (hours):
 
Tides and Currents Weather Stations Pressure Air Temp Water Temp Dewpoint Dewpoint Depression Visibility Wind Speed Wind Dir Waves Ship Positions

Celine

Last reported at 2015-May-13 09:33 UTC. Time now 2015-May-22 16:05 UTC.
Position N 31°30' E 032°15'.
Warning: this ship's position is 9 days out of date.

Length 129 m; draft 6.5 m.

Type: Cargo ship. MMSI: 269057000.

Date/timePositionNaut miles runAvg speedWind from/ knotsBaromVisibWave heightAir tempDewpointWater temp
2015-May-13 09:33N 31°30' E 032°15'  
2015-May-10 14:11N 36°10' E 015°16'913.5
2015-May-10 13:33N 36°13' E 015°06'1413.8
2015-May-10 12:33N 36°17' E 014°50'1414.0
2015-May-10 11:33N 36°22' E 014°34'1413.8
2015-May-10 10:34N 36°26' E 014°17'1413.8
2015-May-10 09:33N 36°30' E 014°01'1413.8
2015-May-10 08:34N 36°34' E 013°44'1413.8
2015-May-10 07:33N 36°39' E 013°28'1413.8
2015-May-10 06:33N 36°43' E 013°12'41113.7
2015-May-09 00:32N 37°12' E 004°38'1414.1
2015-May-08 23:33N 37°10' E 004°21'1414.3
2015-May-08 22:33N 37°08' E 004°04'1414.3
2015-May-08 21:33N 37°05' E 003°46'1413.8
2015-May-08 20:33N 37°02' E 003°29'1413.6
2015-May-08 19:33N 37°01' E 003°12'1414.0
2015-May-08 18:33N 36°58' E 002°55'1413.9
2015-May-08 17:33N 36°55' E 002°38'1413.8
2015-May-08 16:33N 36°53' E 002°21'1414.4
2015-May-08 15:33N 36°50' E 002°03'1414.3
2015-May-08 14:33N 36°48' E 001°46'1514.7
2015-May-08 13:34N 36°45' E 001°28'1515.1
2015-May-08 12:33N 36°43' E 001°09'1815.0
2015-May-08 11:21N 36°40' E 000°47'1214.6
2015-May-08 10:32N 36°38' E 000°32'1414.3
2015-May-08 09:33N 36°35' E 000°15'3912.1
2015-May-08 06:20N 36°28' W 000°32'1113.4
2015-May-08 05:33N 36°26' W 000°45'1513.5
2015-May-08 04:28N 36°24' W 001°03'1413.8
2015-May-08 03:29N 36°21' W 001°20'1213.4
2015-May-08 02:33N 36°19' W 001°35'2713.5
2015-May-08 00:31N 36°14' W 002°09'1313.5
2015-May-07 23:32N 36°11' W 002°25'1413.4
2015-May-07 22:31N 36°09' W 002°42'21313.3
2015-May-07 06:33N 36°03' W 007°05'1413.2
2015-May-07 05:31N 36°06' W 007°21'1313.3
2015-May-07 04:33N 36°09' W 007°37'1313.4
2015-May-07 03:33N 36°12' W 007°53'1313.2
2015-May-07 02:33N 36°16' W 008°09'1313.3
2015-May-07 01:33N 36°19' W 008°25'1313.3
2015-May-07 00:33N 36°22' W 008°41'1413.1
2015-May-06 23:31N 36°25' W 008°57'1313.2
2015-May-06 22:29N 36°28' W 009°14'1312.8
2015-May-06 21:30N 36°35' W 009°27'1313.3
2015-May-06 20:33N 36°44' W 009°38'1312.8
2015-May-06 19:31N 36°57' W 009°42'1612.9
2015-May-06 18:15N 37°13' W 009°46'1012.8
2015-May-06 17:30N 37°23' W 009°49'1312.8
2015-May-06 16:29N 37°35' W 009°53'1313.5
2015-May-06 15:33N 37°48' W 009°56'1313.5
2015-May-06 14:33N 38°01' W 010°01'1313.1
2015-May-06 13:33N 38°13' W 010°05'1313.1
2015-May-06 12:33N 38°26' W 010°09'1313.4
2015-May-06 11:33N 38°39' W 010°12'1414.0
2015-May-06 10:33N 38°53' W 010°12'1413.9
2015-May-06 09:33N 39°07' W 010°12'62111.9
2015-May-04 05:33N 48°57' W 005°42'20911.9
2015-May-03 12:04N 50°23' W 000°48'  

Dump ship's entire track history